createdAt,value
2018-03-25T00:01:22.047Z,34.03
2018-03-25T00:03:50.362Z,33.47
2018-03-25T00:06:18.701Z,31.67
2018-03-25T00:08:47.120Z,31.47
2018-03-25T00:11:15.460Z,33.67
2018-03-25T00:13:43.790Z,30.87
2018-03-25T00:16:12.118Z,30.17
2018-03-25T00:18:40.515Z,33.97
2018-03-25T00:21:13.123Z,31.67
2018-03-25T00:23:41.451Z,28.00
2018-03-25T00:26:09.850Z,32.13
2018-03-25T00:28:38.164Z,30.63
2018-03-25T00:31:06.582Z,28.37
2018-03-25T00:33:34.926Z,31.43
2018-03-25T00:36:03.273Z,31.37
2018-03-25T00:38:31.706Z,33.37
2018-03-25T00:41:00.096Z,34.73
2018-03-25T00:43:28.438Z,33.93
2018-03-25T00:45:56.781Z,33.80
2018-03-25T00:48:25.171Z,32.07
2018-03-25T00:50:53.509Z,35.80
2018-03-25T00:53:21.852Z,34.53
2018-03-25T00:55:50.249Z,31.97
2018-03-25T00:58:18.596Z,29.47
2018-03-25T01:00:46.942Z,31.37
2018-03-25T01:03:15.267Z,34.70
2018-03-25T01:05:43.620Z,35.43
2018-03-25T01:08:12.010Z,31.63
2018-03-25T01:10:40.342Z,26.47
2018-03-25T01:13:08.685Z,28.93
2018-03-25T01:18:37.847Z,31.70
2018-03-25T01:21:06.238Z,29.27
2018-03-25T01:23:34.645Z,30.20
2018-03-25T01:26:02.967Z,29.33
2018-03-25T01:28:31.305Z,32.50
2018-03-25T01:30:59.624Z,35.03
2018-03-25T01:33:27.969Z,31.97
2018-03-25T01:35:56.359Z,31.03
2018-03-25T01:38:24.885Z,32.70
2018-03-25T01:40:53.270Z,35.13
2018-03-25T01:43:21.601Z,31.80
2018-03-25T01:45:49.974Z,37.03
2018-03-25T01:48:18.328Z,36.87
2018-03-25T01:50:46.728Z,31.37
2018-03-25T01:53:15.116Z,36.50
2018-03-25T01:55:43.476Z,33.23
2018-03-25T01:58:11.867Z,36.20
2018-03-25T02:00:41.919Z,33.73
2018-03-25T02:03:10.335Z,33.13
2018-03-25T02:05:38.730Z,33.77
2018-03-25T02:08:07.134Z,34.10
2018-03-25T02:10:35.470Z,37.27
2018-03-25T02:13:03.809Z,38.80
2018-03-25T02:15:32.373Z,36.23
2018-03-25T02:18:00.718Z,35.07
2018-03-25T02:20:29.030Z,32.80
2018-03-25T02:22:57.371Z,28.33
2018-03-25T02:25:25.780Z,34.20
2018-03-25T02:27:54.238Z,33.87
2018-03-25T02:30:22.512Z,35.93
2018-03-25T02:32:50.861Z,36.87
2018-03-25T02:35:19.174Z,30.83
2018-03-25T02:37:47.526Z,38.03
2018-03-25T02:40:15.926Z,31.67
2018-03-25T02:42:44.860Z,31.80
2018-03-25T02:45:13.219Z,35.93
2018-03-25T02:47:41.552Z,31.90
2018-03-25T02:50:10.017Z,32.13
2018-03-25T02:52:38.401Z,34.50
2018-03-25T02:55:06.757Z,29.77
2018-03-25T02:57:35.136Z,31.80
2018-03-25T03:00:03.474Z,33.70
2018-03-25T03:02:31.900Z,30.27
2018-03-25T03:05:00.270Z,35.53
2018-03-25T03:07:28.647Z,37.03
2018-03-25T03:09:56.981Z,32.77
2018-03-25T03:12:25.331Z,33.43
2018-03-25T03:14:53.697Z,31.67
2018-03-25T03:17:22.138Z,32.73
2018-03-25T03:19:50.629Z,35.33
2018-03-25T03:22:18.952Z,36.60
2018-03-25T03:24:47.397Z,38.73
2018-03-25T03:27:15.784Z,36.07
2018-03-25T03:29:44.120Z,31.63
2018-03-25T03:32:14.198Z,34.13
2018-03-25T03:34:42.588Z,41.80
2018-03-25T03:37:10.930Z,35.53
2018-03-25T03:39:39.353Z,41.43
2018-03-25T03:42:07.745Z,36.60
2018-03-25T03:44:36.065Z,40.07
2018-03-25T03:47:04.410Z,38.57
2018-03-25T03:49:32.750Z,34.43
2018-03-25T03:52:01.116Z,39.67
2018-03-25T03:54:29.534Z,35.43
2018-03-25T03:56:57.899Z,35.20
2018-03-25T03:59:26.227Z,35.77
2018-03-25T04:01:54.906Z,42.40
2018-03-25T04:04:23.231Z,39.90
2018-03-25T04:06:52.644Z,33.63
2018-03-25T04:09:21.006Z,37.60
2018-03-25T04:11:49.353Z,37.23
2018-03-25T04:14:17.936Z,37.63
2018-03-25T04:16:46.262Z,39.83
2018-03-25T04:19:14.597Z,37.20
2018-03-25T04:21:42.965Z,40.53
2018-03-25T04:24:11.295Z,45.30
2018-03-25T04:26:39.723Z,36.43
2018-03-25T04:29:08.030Z,38.30
2018-03-25T04:31:36.362Z,40.27
2018-03-25T04:34:04.684Z,37.00
2018-03-25T04:36:33.005Z,45.17
2018-03-25T04:39:01.397Z,40.20
2018-03-25T04:41:29.736Z,39.77
2018-03-25T04:43:58.050Z,43.93
2018-03-25T04:46:26.391Z,44.73
2018-03-25T04:48:54.772Z,44.80
2018-03-25T04:51:23.132Z,42.13
2018-03-25T04:53:51.541Z,40.63
2018-03-25T04:56:19.870Z,42.87
2018-03-25T04:58:48.196Z,43.43
2018-03-25T05:01:16.513Z,38.50
2018-03-25T05:03:44.905Z,41.23
2018-03-25T05:06:13.212Z,47.30
2018-03-25T05:08:41.600Z,41.67
2018-03-25T05:11:09.998Z,45.47
2018-03-25T05:13:38.319Z,42.70
2018-03-25T05:16:06.655Z,46.07
2018-03-25T05:18:34.994Z,45.33
2018-03-25T05:21:03.334Z,42.70
2018-03-25T05:23:31.649Z,42.47
2018-03-25T05:25:59.968Z,42.53
2018-03-25T05:28:28.342Z,44.07
2018-03-25T05:30:56.724Z,40.27
2018-03-25T05:33:25.043Z,43.37
2018-03-25T05:35:53.417Z,45.90
2018-03-25T05:38:21.752Z,45.33
2018-03-25T05:40:50.104Z,43.30
2018-03-25T05:43:18.444Z,44.30
2018-03-25T05:45:46.762Z,44.93
2018-03-25T05:48:15.100Z,43.30
2018-03-25T05:50:43.417Z,40.23
2018-03-25T05:53:11.834Z,39.03
2018-03-25T05:55:40.227Z,43.43
2018-03-25T05:58:08.685Z,42.93
2018-03-25T06:00:37.049Z,37.73
2018-03-25T06:03:05.357Z,43.37
2018-03-25T06:05:33.695Z,37.90
2018-03-25T06:08:02.040Z,37.00
2018-03-25T06:10:30.450Z,33.97
2018-03-25T06:12:58.873Z,36.17
2018-03-25T06:15:27.253Z,36.77
2018-03-25T06:17:55.593Z,35.03
2018-03-25T06:20:24.013Z,35.60
2018-03-25T06:22:52.443Z,33.10
2018-03-25T06:25:20.840Z,34.57
2018-03-25T06:27:49.225Z,35.23
2018-03-25T06:30:17.617Z,35.33
2018-03-25T06:32:46.011Z,33.93
2018-03-25T06:35:14.340Z,36.13
2018-03-25T06:37:42.782Z,40.83
2018-03-25T06:40:11.108Z,34.23
2018-03-25T06:42:39.437Z,32.87
2018-03-25T06:45:07.861Z,35.50
2018-03-25T06:47:36.198Z,32.77
2018-03-25T06:50:04.686Z,36.33
2018-03-25T06:52:33.783Z,34.77
2018-03-25T06:55:02.416Z,34.83
2018-03-25T06:57:30.744Z,35.13
2018-03-25T06:59:59.155Z,33.30
2018-03-25T07:02:27.511Z,29.47
2018-03-25T07:04:55.904Z,37.37
2018-03-25T07:07:24.362Z,30.83
2018-03-25T07:09:52.688Z,36.80
2018-03-25T07:12:21.083Z,33.37
2018-03-25T07:14:49.698Z,36.60
2018-03-25T07:17:18.804Z,32.80
2018-03-25T07:19:47.134Z,33.37
2018-03-25T07:22:15.468Z,31.23
2018-03-25T07:24:43.897Z,33.17
2018-03-25T07:27:12.367Z,32.23
2018-03-25T07:29:40.682Z,31.90
2018-03-25T07:32:09.007Z,35.83
2018-03-25T07:34:37.436Z,32.60
2018-03-25T07:37:05.744Z,35.87
2018-03-25T07:39:34.106Z,31.80
2018-03-25T07:42:02.456Z,36.83
2018-03-25T07:44:31.156Z,42.37
2018-03-25T07:47:00.506Z,34.17
2018-03-25T07:49:28.863Z,35.73
2018-03-25T07:51:57.373Z,36.63
2018-03-25T07:54:25.705Z,37.60
2018-03-25T07:56:54.114Z,34.23
2018-03-25T07:59:22.469Z,36.37
2018-03-25T08:01:51.170Z,35.50
2018-03-25T08:04:19.715Z,43.73
2018-03-25T08:06:48.049Z,29.17
2018-03-25T08:09:16.556Z,35.87
2018-03-25T08:11:44.926Z,31.10
2018-03-25T08:14:13.262Z,34.67
2018-03-25T08:16:41.584Z,31.80
2018-03-25T08:19:09.929Z,32.67
2018-03-25T08:21:38.337Z,35.03
2018-03-25T08:24:07.798Z,38.20
2018-03-25T08:26:36.166Z,33.70
2018-03-25T08:29:04.557Z,35.40
2018-03-25T08:31:33.182Z,34.93
2018-03-25T08:34:01.574Z,31.37
2018-03-25T08:36:29.917Z,30.83
2018-03-25T08:38:58.251Z,32.50
2018-03-25T08:41:26.587Z,34.73
2018-03-25T08:43:54.931Z,30.93
2018-03-25T08:46:23.265Z,31.23
2018-03-25T08:48:51.630Z,30.10
2018-03-25T08:51:19.973Z,30.37
2018-03-25T08:53:48.311Z,34.33
2018-03-25T08:56:16.722Z,33.90
2018-03-25T08:58:45.041Z,34.47
2018-03-25T09:01:13.383Z,30.47
2018-03-25T09:03:43.840Z,32.27
2018-03-25T09:06:12.161Z,34.93
2018-03-25T09:08:40.481Z,32.43
2018-03-25T09:11:09.004Z,29.63
2018-03-25T09:13:44.009Z,30.47
2018-03-25T09:16:15.269Z,32.07
2018-03-25T09:18:43.617Z,32.37
2018-03-25T09:21:12.081Z,33.20
2018-03-25T09:23:40.467Z,33.67
2018-03-25T09:26:08.808Z,33.73
2018-03-25T09:28:37.233Z,31.27
2018-03-25T09:31:05.621Z,29.53
2018-03-25T09:33:34.063Z,30.87
2018-03-25T09:36:02.572Z,28.50
2018-03-25T09:38:30.913Z,30.10
2018-03-25T09:40:59.256Z,30.40
2018-03-25T09:43:27.614Z,33.80
2018-03-25T09:45:55.925Z,30.90
2018-03-25T09:48:24.294Z,33.50
2018-03-25T09:50:52.955Z,30.37
2018-03-25T09:53:21.369Z,32.20
2018-03-25T09:55:49.695Z,31.27
2018-03-25T09:58:18.029Z,32.93
2018-03-25T10:00:49.200Z,31.70
2018-03-25T10:03:23.237Z,31.80
2018-03-25T10:05:51.621Z,33.97
2018-03-25T10:08:19.992Z,35.83
2018-03-25T10:10:48.410Z,30.03
2018-03-25T10:13:16.775Z,30.07
2018-03-25T10:15:45.096Z,36.33
2018-03-25T10:18:13.477Z,32.27
2018-03-25T10:20:41.885Z,33.17
2018-03-25T10:23:10.217Z,36.60
2018-03-25T10:25:38.547Z,35.27
2018-03-25T10:28:06.972Z,32.10
2018-03-25T10:30:35.344Z,29.67
2018-03-25T10:33:03.724Z,31.97
2018-03-25T10:35:32.076Z,33.20
2018-03-25T10:38:00.667Z,30.63
2018-03-25T10:40:29.326Z,36.33
2018-03-25T10:42:57.679Z,38.30
2018-03-25T10:45:26.020Z,35.20
2018-03-25T10:47:54.530Z,33.40
2018-03-25T10:50:22.884Z,31.73
2018-03-25T10:52:51.299Z,32.13
2018-03-25T10:55:19.677Z,32.77
2018-03-25T10:57:48.722Z,33.00
2018-03-25T11:00:17.060Z,31.33
2018-03-25T11:02:45.479Z,30.10
2018-03-25T11:05:13.847Z,31.57
2018-03-25T11:07:42.228Z,29.07
2018-03-25T11:10:10.590Z,30.80
2018-03-25T11:12:39.390Z,29.90
2018-03-25T11:15:07.806Z,34.30
2018-03-25T11:17:36.177Z,32.30
2018-03-25T11:20:04.549Z,30.60
2018-03-25T11:22:32.925Z,31.40
2018-03-25T11:25:01.250Z,33.10
2018-03-25T11:27:29.609Z,30.93
2018-03-25T11:29:58.038Z,30.10
2018-03-25T11:32:26.395Z,34.00
2018-03-25T11:34:54.760Z,30.90
2018-03-25T11:37:23.163Z,32.33
2018-03-25T11:39:51.554Z,38.00
2018-03-25T11:42:19.913Z,33.20
2018-03-25T11:44:48.261Z,33.40
2018-03-25T11:47:16.634Z,30.43
2018-03-25T11:49:45.032Z,32.87
2018-03-25T11:52:13.365Z,32.83
2018-03-25T11:54:41.828Z,30.87
2018-03-25T11:57:10.267Z,28.50
2018-03-25T11:59:38.586Z,32.23
2018-03-25T12:02:06.977Z,31.03
2018-03-25T12:04:35.296Z,33.03
2018-03-25T12:07:03.695Z,31.77
2018-03-25T12:09:32.061Z,31.63
2018-03-25T12:12:00.449Z,29.73
2018-03-25T12:14:28.850Z,29.53
2018-03-25T12:16:57.257Z,30.90
2018-03-25T12:19:25.585Z,31.63
2018-03-25T12:21:53.944Z,31.37
2018-03-25T12:24:22.302Z,33.33
2018-03-25T12:26:50.667Z,34.27
2018-03-25T12:29:18.996Z,32.23
2018-03-25T12:31:47.368Z,32.53
2018-03-25T12:34:15.686Z,32.20
2018-03-25T12:36:44.042Z,30.27
2018-03-25T12:39:12.411Z,32.07
2018-03-25T12:41:40.790Z,28.90
2018-03-25T12:44:09.857Z,30.93
2018-03-25T12:46:38.295Z,30.83
2018-03-25T12:49:06.673Z,28.57
2018-03-25T12:51:35.013Z,30.63
2018-03-25T12:54:03.362Z,30.03
2018-03-25T12:56:31.715Z,30.67
2018-03-25T12:59:00.051Z,29.40
2018-03-25T13:01:28.394Z,30.07
2018-03-25T13:03:56.737Z,32.27
2018-03-25T13:06:25.074Z,30.03
2018-03-25T13:08:53.433Z,32.00
2018-03-25T13:11:22.408Z,29.63
2018-03-25T13:13:50.821Z,31.87
2018-03-25T13:16:19.146Z,31.87
2018-03-25T13:18:47.512Z,32.53
2018-03-25T13:21:16.012Z,30.73
2018-03-25T13:23:44.355Z,30.67
2018-03-25T13:26:12.737Z,30.93
2018-03-25T13:28:41.139Z,33.47
2018-03-25T13:31:09.502Z,30.67
2018-03-25T13:33:37.865Z,31.30
2018-03-25T13:36:06.202Z,30.13
2018-03-25T13:38:34.546Z,31.47
2018-03-25T13:41:02.892Z,29.93
2018-03-25T13:43:31.217Z,30.90
2018-03-25T13:45:59.568Z,33.43
2018-03-25T13:48:27.903Z,33.43
2018-03-25T13:50:56.257Z,31.73
2018-03-25T13:53:24.648Z,32.60
2018-03-25T13:55:53.040Z,30.37
2018-03-25T13:58:21.369Z,32.67
2018-03-25T14:00:49.719Z,32.90
2018-03-25T14:03:18.041Z,32.53
2018-03-25T14:05:46.417Z,34.43
2018-03-25T14:08:14.794Z,31.57
2018-03-25T14:10:43.154Z,37.17
2018-03-25T14:13:11.474Z,33.83
2018-03-25T14:15:39.885Z,32.27
2018-03-25T14:18:08.217Z,32.93
2018-03-25T14:20:36.555Z,34.57
2018-03-25T14:23:04.974Z,37.20
2018-03-25T14:25:33.340Z,33.63
2018-03-25T14:28:01.687Z,33.93
2018-03-25T14:30:30.026Z,33.90
2018-03-25T14:32:58.392Z,34.00
2018-03-25T14:35:26.710Z,35.53
2018-03-25T14:37:55.093Z,35.20
2018-03-25T14:40:23.478Z,38.10
2018-03-25T14:42:51.859Z,34.20
2018-03-25T14:45:20.184Z,51.87
2018-03-25T14:47:48.557Z,34.93
2018-03-25T14:50:16.898Z,34.77
2018-03-25T14:52:45.238Z,36.10
2018-03-25T14:55:13.588Z,32.33
2018-03-25T14:57:41.987Z,37.83
2018-03-25T15:00:10.405Z,30.37
2018-03-25T15:02:38.822Z,33.77
2018-03-25T15:05:07.195Z,33.67
2018-03-25T15:07:35.563Z,34.37
2018-03-25T15:10:03.884Z,38.40
2018-03-25T15:12:32.285Z,34.90
2018-03-25T15:15:00.601Z,34.47
2018-03-25T15:17:29.433Z,33.83
2018-03-25T15:19:57.809Z,35.80
2018-03-25T15:22:26.159Z,35.90
2018-03-25T15:24:54.473Z,40.10
2018-03-25T15:27:22.896Z,35.23
2018-03-25T15:29:51.257Z,37.87
2018-03-25T15:32:19.587Z,36.07
2018-03-25T15:34:48.029Z,35.80
2018-03-25T15:37:16.361Z,34.83
2018-03-25T15:39:44.857Z,34.23
2018-03-25T15:42:13.233Z,35.77
2018-03-25T15:44:41.625Z,35.50
2018-03-25T15:47:10.008Z,35.20
2018-03-25T15:49:40.074Z,40.20
2018-03-25T15:52:08.615Z,36.80
2018-03-25T15:54:36.962Z,40.20
2018-03-25T15:57:05.269Z,40.77
2018-03-25T15:59:33.712Z,36.67
2018-03-25T16:02:02.086Z,38.10
2018-03-25T16:04:30.413Z,38.70
2018-03-25T16:06:58.776Z,38.70
2018-03-25T16:09:27.296Z,41.60
2018-03-25T16:11:55.651Z,41.50
2018-03-25T16:14:23.981Z,40.33
2018-03-25T16:16:52.334Z,39.07
2018-03-25T16:19:20.716Z,39.10
2018-03-25T16:21:49.056Z,35.67
2018-03-25T16:24:17.401Z,41.07
2018-03-25T16:26:45.889Z,33.93
2018-03-25T16:29:14.238Z,35.60
2018-03-25T16:31:43.179Z,39.47
2018-03-25T16:34:11.544Z,43.60
2018-03-25T16:36:40.116Z,41.27
2018-03-25T16:39:08.522Z,39.83
2018-03-25T16:41:37.848Z,39.17
2018-03-25T16:44:06.165Z,35.77
2018-03-25T16:46:34.508Z,38.20
2018-03-25T16:49:02.814Z,39.73
2018-03-25T16:51:31.606Z,39.33
2018-03-25T16:53:59.960Z,43.43
2018-03-25T16:56:28.291Z,40.57
2018-03-25T16:58:56.632Z,36.10
2018-03-25T17:01:25.045Z,38.80
2018-03-25T17:03:53.426Z,40.43
2018-03-25T17:06:21.750Z,40.20
2018-03-25T17:08:50.064Z,37.43
2018-03-25T17:11:18.419Z,40.97
2018-03-25T17:13:46.817Z,39.03
2018-03-25T17:16:15.158Z,38.57
2018-03-25T17:18:43.534Z,40.83
2018-03-25T17:21:11.896Z,43.70
2018-03-25T17:23:40.746Z,40.67
2018-03-25T17:26:09.186Z,39.90
2018-03-25T17:28:37.526Z,45.73
2018-03-25T17:31:05.846Z,43.27
2018-03-25T17:33:34.194Z,45.63
2018-03-25T17:36:02.548Z,43.83
2018-03-25T17:38:30.934Z,42.13
2018-03-25T17:40:59.280Z,44.23
2018-03-25T17:43:27.627Z,42.10
2018-03-25T17:45:55.960Z,48.03
2018-03-25T17:48:24.406Z,45.73
2018-03-25T17:50:52.746Z,43.07
2018-03-25T17:53:21.177Z,43.63
2018-03-25T17:55:49.556Z,43.80
2018-03-25T17:58:17.856Z,43.10
2018-03-25T18:00:46.213Z,50.17
2018-03-25T18:03:14.562Z,45.50
2018-03-25T18:05:42.930Z,46.07
2018-03-25T18:08:11.270Z,45.13
2018-03-25T18:10:39.615Z,44.67
2018-03-25T18:13:07.972Z,43.47
2018-03-25T18:15:36.301Z,48.20
2018-03-25T18:18:04.658Z,46.00
2018-03-25T18:20:32.980Z,48.80
2018-03-25T18:23:01.414Z,47.83
2018-03-25T18:25:29.748Z,49.10
2018-03-25T18:27:58.144Z,47.13
2018-03-25T18:30:26.623Z,43.87
2018-03-25T18:32:55.089Z,45.67
2018-03-25T18:35:23.461Z,45.60
2018-03-25T18:37:51.919Z,47.03
2018-03-25T18:40:20.364Z,42.87
2018-03-25T18:42:48.669Z,50.90
2018-03-25T18:45:16.994Z,47.67
2018-03-25T18:47:45.337Z,47.20
2018-03-25T18:50:13.791Z,52.17
2018-03-25T18:52:42.107Z,46.63
2018-03-25T18:55:10.630Z,48.00
2018-03-25T18:57:39.532Z,54.77
2018-03-25T19:00:12.363Z,46.53
2018-03-25T19:02:43.571Z,52.73
2018-03-25T19:05:12.160Z,52.37
2018-03-25T19:07:43.234Z,50.10
2018-03-25T19:10:11.888Z,47.60
2018-03-25T19:12:42.041Z,48.07
2018-03-25T19:15:11.805Z,47.33
2018-03-25T19:17:40.338Z,51.73
2018-03-25T19:20:11.940Z,50.80
2018-03-25T19:22:43.546Z,47.03
2018-03-25T19:25:14.266Z,57.17
2018-03-25T19:27:43.359Z,50.57
2018-03-25T19:30:13.941Z,52.70
2018-03-25T19:32:42.489Z,51.53
2018-03-25T19:35:15.072Z,45.70
2018-03-25T19:37:50.466Z,46.13
2018-03-25T19:40:20.236Z,50.50
2018-03-25T19:42:51.115Z,50.27
2018-03-25T19:45:24.900Z,50.03
2018-03-25T19:47:56.433Z,46.00
2018-03-25T19:50:27.163Z,53.27
2018-03-25T19:52:58.906Z,54.13
2018-03-25T19:55:30.319Z,47.97
2018-03-25T19:58:01.489Z,49.57
2018-03-25T20:00:30.556Z,45.27
2018-03-25T20:03:01.543Z,55.83
2018-03-25T20:05:31.354Z,54.17
2018-03-25T20:08:07.442Z,53.83
2018-03-25T20:10:43.300Z,51.40
2018-03-25T20:13:16.248Z,55.00
2018-03-25T20:15:47.609Z,52.53
2018-03-25T20:18:16.095Z,50.20
2018-03-25T20:20:49.544Z,49.60
2018-03-25T20:23:22.770Z,49.63
2018-03-25T20:25:55.444Z,52.60
2018-03-25T20:28:25.074Z,49.10
2018-03-25T20:30:54.232Z,52.40
2018-03-25T20:33:22.774Z,52.53
2018-03-25T20:35:51.900Z,54.17
2018-03-25T20:38:20.893Z,53.90
2018-03-25T20:40:49.504Z,49.80
2018-03-25T20:43:18.321Z,52.23
2018-03-25T20:45:47.055Z,49.60
2018-03-25T20:48:16.328Z,57.83
2018-03-25T20:50:45.905Z,57.77
2018-03-25T20:53:14.471Z,52.10
2018-03-25T20:55:42.846Z,52.67
2018-03-25T20:58:12.354Z,55.27
2018-03-25T21:00:42.065Z,57.67
2018-03-25T21:03:12.904Z,58.73
2018-03-25T21:05:42.047Z,54.97
2018-03-25T21:08:11.189Z,55.83
2018-03-25T21:10:39.681Z,53.97
2018-03-25T21:13:08.370Z,52.93
2018-03-25T21:15:38.684Z,56.37
2018-03-25T21:18:07.320Z,57.17
2018-03-25T21:20:36.860Z,55.60
2018-03-25T21:23:06.050Z,58.83
2018-03-25T21:25:37.443Z,58.40
2018-03-25T21:28:08.114Z,58.00
2018-03-25T21:30:36.653Z,56.63
2018-03-25T21:33:06.561Z,53.50
2018-03-25T21:35:37.458Z,60.33
2018-03-25T21:38:05.879Z,56.07
2018-03-25T21:40:35.095Z,56.13
2018-03-25T21:43:04.201Z,56.87
2018-03-25T21:45:34.678Z,51.87
2018-03-25T21:48:03.227Z,61.43
2018-03-25T21:50:32.848Z,56.23
2018-03-25T21:53:01.452Z,50.43
2018-03-25T21:55:30.565Z,55.57
2018-03-25T21:57:59.363Z,54.37
2018-03-25T22:00:28.075Z,53.70
2018-03-25T22:02:57.853Z,56.70
2018-03-25T22:05:28.444Z,56.43
2018-03-25T22:07:57.380Z,54.53
2018-03-25T22:10:27.820Z,57.57
2018-03-25T22:12:57.206Z,62.57
2018-03-25T22:15:26.412Z,62.23
2018-03-25T22:17:55.111Z,67.90
2018-03-25T22:20:24.219Z,58.10
2018-03-25T22:22:53.275Z,57.63
2018-03-25T22:25:22.986Z,56.20
2018-03-25T22:27:51.758Z,58.23
2018-03-25T22:30:21.965Z,53.43
2018-03-25T22:32:50.580Z,61.20
2018-03-25T22:35:19.558Z,60.47
2018-03-25T22:37:49.733Z,60.03
2018-03-25T22:40:19.297Z,57.90
2018-03-25T22:42:48.280Z,60.27
2018-03-25T22:45:16.749Z,61.83
2018-03-25T22:47:46.846Z,62.97
2018-03-25T22:50:18.060Z,62.13
2018-03-25T22:52:46.522Z,60.10
2018-03-25T22:55:15.186Z,59.00
2018-03-25T22:57:44.129Z,58.70
2018-03-25T23:00:13.512Z,56.70
2018-03-25T23:02:41.952Z,62.20
2018-03-25T23:05:14.204Z,58.47
2018-03-25T23:07:42.637Z,57.43
2018-03-25T23:10:11.089Z,56.20
2018-03-25T23:12:40.907Z,55.67
2018-03-25T23:15:09.939Z,65.33
2018-03-25T23:17:40.830Z,60.37
2018-03-25T23:20:12.326Z,57.80
2018-03-25T23:22:43.748Z,67.20
2018-03-25T23:25:15.436Z,56.93
2018-03-25T23:27:44.486Z,60.10
2018-03-25T23:30:14.738Z,65.20
2018-03-25T23:32:44.213Z,60.23
2018-03-25T23:35:12.722Z,54.57
2018-03-25T23:37:41.227Z,54.57
2018-03-25T23:40:11.302Z,55.73
2018-03-25T23:42:39.960Z,53.50
2018-03-25T23:45:08.396Z,59.53
2018-03-25T23:47:36.963Z,54.83
2018-03-25T23:50:06.367Z,54.60
2018-03-25T23:52:37.907Z,58.63
2018-03-25T23:55:07.187Z,53.40
2018-03-25T23:57:35.739Z,53.90
